createdAt,value
2022-11-15T00:00:35.454Z,71.03
2022-11-15T00:03:01.884Z,75.57
2022-11-15T00:05:28.312Z,67.70
2022-11-15T00:07:56.193Z,68.85
2022-11-15T00:10:22.821Z,70.55
2022-11-15T00:12:49.238Z,72.40
2022-11-15T00:15:15.965Z,76.53
2022-11-15T00:17:42.361Z,75.18
2022-11-15T00:20:09.270Z,71.97
2022-11-15T00:22:35.685Z,67.28
2022-11-15T00:25:02.119Z,75.22
2022-11-15T00:27:28.550Z,68.75
2022-11-15T00:29:55.138Z,75.22
2022-11-15T00:32:21.576Z,70.13
2022-11-15T00:34:47.985Z,72.78
2022-11-15T00:37:14.421Z,77.20
2022-11-15T00:39:40.810Z,76.10
2022-11-15T00:42:07.219Z,75.28
2022-11-15T00:44:33.653Z,77.57
2022-11-15T00:47:00.495Z,80.32
2022-11-15T00:49:26.909Z,74.63
2022-11-15T00:51:53.290Z,77.35
2022-11-15T00:54:19.669Z,76.63
2022-11-15T00:56:46.165Z,83.78
2022-11-15T00:59:12.594Z,85.28
2022-11-15T01:01:38.992Z,84.47
2022-11-15T01:04:05.455Z,78.30
2022-11-15T01:06:31.898Z,77.80
2022-11-15T01:08:58.296Z,84.35
2022-11-15T01:11:24.719Z,79.80
2022-11-15T01:13:51.189Z,79.00
2022-11-15T01:16:19.540Z,86.47
2022-11-15T01:18:46.781Z,83.43
2022-11-15T01:21:18.384Z,84.75
2022-11-15T01:26:14.400Z,83.82
2022-11-15T01:28:42.693Z,86.63
2022-11-15T01:31:17.764Z,87.35
2022-11-15T01:33:44.332Z,87.97
2022-11-15T01:36:19.641Z,88.07
2022-11-15T01:38:46.096Z,86.43
2022-11-15T01:41:21.421Z,84.03
2022-11-15T01:43:50.066Z,94.32
2022-11-15T01:46:22.235Z,92.05
2022-11-15T01:48:50.613Z,85.43
2022-11-15T01:51:19.867Z,85.68
2022-11-15T01:53:52.822Z,86.85
2022-11-15T01:56:24.332Z,88.80
2022-11-15T01:58:52.509Z,88.60
2022-11-15T02:01:19.037Z,86.10
2022-11-15T02:04:00.699Z,88.55
2022-11-15T02:07:22.682Z,90.05
2022-11-15T02:09:50.978Z,87.65
2022-11-15T02:12:20.806Z,87.95
2022-11-15T02:14:52.578Z,92.35
2022-11-15T02:17:41.975Z,93.10
2022-11-15T02:20:14.509Z,94.43
2022-11-15T02:22:55.883Z,90.05
2022-11-15T02:25:38.874Z,89.78
2022-11-15T02:28:31.843Z,94.28
2022-11-15T02:31:11.087Z,89.20
2022-11-15T02:33:48.341Z,89.47
2022-11-15T02:36:22.578Z,88.68
2022-11-15T02:39:17.239Z,87.57
2022-11-15T02:41:53.258Z,88.45
2022-11-15T02:44:33.149Z,87.85
2022-11-15T02:47:14.893Z,93.28
2022-11-15T02:52:21.407Z,84.20
2022-11-15T02:55:01.948Z,76.50
2022-11-15T02:57:45.150Z,88.10
2022-11-15T03:00:13.841Z,83.60
2022-11-15T03:02:59.871Z,79.82
2022-11-15T03:05:45.228Z,82.13
2022-11-15T03:08:14.376Z,87.22
2022-11-15T03:10:46.962Z,88.18
2022-11-15T03:13:27.493Z,82.72
2022-11-15T03:16:07.649Z,83.55
2022-11-15T03:18:39.552Z,84.50
2022-11-15T03:21:09.596Z,86.53
2022-11-15T03:23:38.111Z,81.93
2022-11-15T03:26:08.114Z,82.53
2022-11-15T03:28:45.196Z,89.28
2022-11-15T03:31:33.858Z,86.43
2022-11-15T03:34:05.269Z,82.50
2022-11-15T03:36:35.441Z,88.90
2022-11-15T03:39:06.121Z,83.18
2022-11-15T03:41:44.971Z,82.93
2022-11-15T03:44:32.762Z,83.22
2022-11-15T03:47:14.441Z,85.47
2022-11-15T03:52:11.605Z,85.47
2022-11-15T03:54:48.490Z,90.57
2022-11-15T03:57:14.954Z,85.20
2022-11-15T03:59:41.442Z,81.75
2022-11-15T04:02:07.874Z,83.95
2022-11-15T04:04:34.293Z,85.32
2022-11-15T04:07:00.837Z,84.95
2022-11-15T04:09:27.285Z,84.03
2022-11-15T04:11:53.721Z,89.40
2022-11-15T04:14:20.168Z,80.93
2022-11-15T04:16:46.580Z,83.90
2022-11-15T04:19:31.613Z,90.65
2022-11-15T04:22:16.567Z,87.45
2022-11-15T04:24:42.943Z,87.50
2022-11-15T04:27:09.419Z,90.45
2022-11-15T04:29:35.850Z,86.53
2022-11-15T04:32:04.473Z,83.13
2022-11-15T04:34:30.911Z,84.38
2022-11-15T04:37:16.949Z,79.25
2022-11-15T04:39:44.255Z,82.53
2022-11-15T04:42:11.224Z,83.90
2022-11-15T04:44:37.767Z,85.93
2022-11-15T04:47:04.633Z,89.63
2022-11-15T04:49:31.032Z,81.60
2022-11-15T04:51:57.453Z,84.13
2022-11-15T04:54:23.921Z,82.00
2022-11-15T04:56:50.348Z,82.65
2022-11-15T04:59:16.796Z,78.72
2022-11-15T05:01:45.013Z,74.18
2022-11-15T05:04:20.643Z,80.18
2022-11-15T05:06:51.504Z,76.20
2022-11-15T05:09:19.402Z,77.95
2022-11-15T05:11:46.373Z,86.82
2022-11-15T05:14:12.877Z,76.75
2022-11-15T05:16:39.451Z,81.13
2022-11-15T05:19:06.536Z,77.25
2022-11-15T05:21:33.716Z,75.88
2022-11-15T05:24:00.517Z,82.78
2022-11-15T05:26:27.835Z,89.80
2022-11-15T05:28:56.363Z,72.28
2022-11-15T05:31:22.987Z,81.93
2022-11-15T05:33:52.426Z,78.20
2022-11-15T05:36:28.549Z,84.45
2022-11-15T05:38:55.225Z,77.15
2022-11-15T05:41:27.747Z,127.30
2022-11-15T05:43:54.972Z,110.55
2022-11-15T05:46:21.507Z,87.35
2022-11-15T05:48:52.612Z,78.68
2022-11-15T05:51:21.744Z,78.88
2022-11-15T05:53:49.125Z,74.63
2022-11-15T05:56:15.897Z,79.63
2022-11-15T05:58:43.053Z,83.85
2022-11-15T06:01:10.025Z,85.30
2022-11-15T06:03:36.441Z,80.60
2022-11-15T06:06:02.975Z,77.75
2022-11-15T06:08:29.502Z,75.45
2022-11-15T06:10:56.011Z,76.53
2022-11-15T06:13:22.472Z,76.50
2022-11-15T06:15:49.236Z,72.97
2022-11-15T06:18:15.664Z,80.07
2022-11-15T06:20:42.113Z,77.82
2022-11-15T06:23:08.569Z,76.57
2022-11-15T06:25:35.021Z,81.15
2022-11-15T06:28:01.485Z,81.25
2022-11-15T06:30:28.045Z,78.55
2022-11-15T06:33:03.614Z,82.25
2022-11-15T06:35:30.993Z,86.03
2022-11-15T06:38:03.957Z,84.30
2022-11-15T06:40:30.364Z,77.57
2022-11-15T06:43:00.738Z,72.38
2022-11-15T06:45:27.504Z,73.00
2022-11-15T06:47:54.111Z,69.80
2022-11-15T06:50:20.744Z,82.10
2022-11-15T06:52:47.158Z,78.78
2022-11-15T06:55:13.795Z,79.93
2022-11-15T06:57:50.952Z,81.25
2022-11-15T07:00:21.893Z,78.15
2022-11-15T07:02:48.976Z,52.97
2022-11-15T07:05:16.781Z,70.97
2022-11-15T07:07:43.359Z,81.82
2022-11-15T07:10:10.432Z,76.60
2022-11-15T07:12:36.903Z,79.53
2022-11-15T07:15:03.579Z,76.70
2022-11-15T07:17:30.025Z,76.30
2022-11-15T07:19:56.438Z,71.57
2022-11-15T07:22:22.938Z,80.28
2022-11-15T07:24:49.340Z,123.85
2022-11-15T07:27:15.870Z,121.45
2022-11-15T07:29:42.398Z,99.22
2022-11-15T07:32:09.835Z,139.60
2022-11-15T07:34:36.253Z,96.80
2022-11-15T07:37:02.701Z,75.88
2022-11-15T07:39:29.080Z,118.80
2022-11-15T07:42:15.489Z,175.00
2022-11-15T07:44:41.931Z,176.05
2022-11-15T07:47:08.389Z,110.47
2022-11-15T07:49:34.824Z,121.55
2022-11-15T07:52:01.262Z,87.68
2022-11-15T07:54:27.674Z,75.07
2022-11-15T07:56:54.097Z,75.78
2022-11-15T07:59:20.600Z,95.10
2022-11-15T08:01:47.198Z,82.75
2022-11-15T08:04:13.820Z,70.60
2022-11-15T08:06:40.230Z,68.57
2022-11-15T08:09:06.666Z,71.05
2022-11-15T08:11:33.352Z,69.65
2022-11-15T08:14:00.168Z,69.63
2022-11-15T08:16:26.561Z,64.15
2022-11-15T08:18:53.169Z,75.78
2022-11-15T08:21:21.403Z,75.30
2022-11-15T08:23:48.209Z,72.88
2022-11-15T08:26:15.198Z,61.25
2022-11-15T08:28:42.650Z,64.80
2022-11-15T08:31:15.254Z,70.78
2022-11-15T08:33:41.689Z,65.45
2022-11-15T08:36:15.230Z,72.47
2022-11-15T08:38:42.239Z,63.30
2022-11-15T08:41:14.762Z,59.42
2022-11-15T08:43:41.276Z,65.85
2022-11-15T08:46:12.873Z,59.80
2022-11-15T08:51:05.724Z,58.58
2022-11-15T08:53:32.143Z,57.53
2022-11-15T08:55:58.534Z,58.15
2022-11-15T08:58:24.955Z,53.58
2022-11-15T09:00:51.415Z,58.25
2022-11-15T09:03:17.953Z,48.88
2022-11-15T09:05:44.347Z,58.22
2022-11-15T09:08:32.797Z,49.13
2022-11-15T09:10:57.274Z,48.72
2022-11-15T09:13:23.703Z,49.10
2022-11-15T09:15:50.179Z,50.22
2022-11-15T09:18:16.810Z,49.70
2022-11-15T09:20:43.365Z,46.85
2022-11-15T09:23:09.866Z,39.92
2022-11-15T09:25:37.465Z,38.10
2022-11-15T09:28:07.605Z,37.00
2022-11-15T09:30:34.008Z,35.30
2022-11-15T09:33:07.804Z,33.45
2022-11-15T09:35:34.301Z,35.13
2022-11-15T09:38:00.799Z,41.47
2022-11-15T09:40:27.478Z,29.33
2022-11-15T09:42:56.997Z,31.90
2022-11-15T09:45:32.904Z,31.85
2022-11-15T09:48:14.516Z,28.33
2022-11-15T09:50:47.758Z,30.25
2022-11-15T09:53:50.697Z,34.78
2022-11-15T09:56:24.048Z,28.77
2022-11-15T09:59:32.437Z,29.17
2022-11-15T10:02:33.881Z,26.40
2022-11-15T10:05:02.290Z,30.17
2022-11-15T10:07:44.141Z,27.30
2022-11-15T10:12:51.075Z,26.67
2022-11-15T10:15:23.524Z,30.35
2022-11-15T10:18:15.882Z,26.73
2022-11-15T10:20:56.828Z,25.98
2022-11-15T10:23:24.488Z,25.23
2022-11-15T10:25:57.789Z,25.17
2022-11-15T10:28:32.349Z,24.25
2022-11-15T10:31:01.920Z,28.83
2022-11-15T10:33:37.241Z,25.05
2022-11-15T10:36:09.808Z,26.10
2022-11-15T10:38:51.155Z,26.70
2022-11-15T10:41:20.566Z,25.67
2022-11-15T10:44:08.357Z,25.95
2022-11-15T10:46:51.689Z,32.47
2022-11-15T10:49:26.544Z,32.08
2022-11-15T10:51:58.897Z,36.63
2022-11-15T10:54:44.621Z,28.83
2022-11-15T10:57:20.359Z,27.88
2022-11-15T10:59:49.764Z,26.02
2022-11-15T11:02:57.572Z,27.75
2022-11-15T11:05:42.626Z,25.42
2022-11-15T11:08:12.185Z,26.45
2022-11-15T11:10:51.698Z,29.83
2022-11-15T11:13:34.118Z,37.03
2022-11-15T11:19:02.341Z,25.65
2022-11-15T11:21:50.536Z,25.75
2022-11-15T11:24:35.539Z,43.80
2022-11-15T11:27:33.350Z,25.95
2022-11-15T11:30:14.031Z,25.38
2022-11-15T11:32:56.443Z,21.02
2022-11-15T11:36:13.919Z,22.80
2022-11-15T11:38:40.282Z,56.72
2022-11-15T11:41:39.047Z,40.38
2022-11-15T11:44:29.930Z,241.70
2022-11-15T11:47:01.841Z,128.23
2022-11-15T11:49:28.165Z,87.25
2022-11-15T11:52:11.412Z,32.28
2022-11-15T11:54:52.439Z,42.17
2022-11-15T11:58:00.502Z,23.10
2022-11-15T12:00:29.460Z,21.77
2022-11-15T12:03:08.239Z,22.58
2022-11-15T12:05:40.875Z,20.70
2022-11-15T12:08:25.596Z,18.70
2022-11-15T12:11:02.239Z,17.90
2022-11-15T12:13:34.883Z,24.23
2022-11-15T12:16:10.497Z,17.05
2022-11-15T12:18:38.184Z,18.27
2022-11-15T12:21:39.655Z,15.73
2022-11-15T12:24:15.443Z,20.20
2022-11-15T12:26:53.065Z,18.67
2022-11-15T12:29:26.994Z,16.52
2022-11-15T12:31:57.850Z,20.13
2022-11-15T12:34:46.063Z,20.88
2022-11-15T12:37:38.619Z,17.33
2022-11-15T12:40:19.598Z,17.27
2022-11-15T12:43:15.117Z,17.05
2022-11-15T12:45:43.829Z,20.65
2022-11-15T12:48:19.116Z,21.02
2022-11-15T12:50:51.553Z,16.98
2022-11-15T12:53:36.105Z,19.98
2022-11-15T12:56:05.223Z,18.65
2022-11-15T12:58:51.858Z,16.27
2022-11-15T13:01:34.198Z,20.42
2022-11-15T13:04:19.607Z,22.40
2022-11-15T13:06:52.409Z,20.60
2022-11-15T13:09:30.801Z,21.38
2022-11-15T13:11:58.393Z,22.05
2022-11-15T13:14:44.213Z,22.30
2022-11-15T13:17:19.997Z,24.42
2022-11-15T13:20:16.273Z,26.50
2022-11-15T13:23:02.894Z,38.58
2022-11-15T13:25:58.782Z,34.15
2022-11-15T13:28:39.570Z,28.30
2022-11-15T13:31:18.073Z,24.30
2022-11-15T13:33:45.317Z,26.00
2022-11-15T13:36:20.763Z,22.50
2022-11-15T13:38:59.138Z,22.65
2022-11-15T13:41:32.144Z,24.45
2022-11-15T13:44:00.550Z,21.77
2022-11-15T13:46:34.692Z,22.02
2022-11-15T13:49:02.334Z,33.03
2022-11-15T13:51:55.333Z,25.23
2022-11-15T13:54:26.945Z,28.40
2022-11-15T13:59:26.104Z,25.65
2022-11-15T14:01:54.574Z,24.08
2022-11-15T14:04:24.089Z,24.17
2022-11-15T14:06:56.075Z,25.17
2022-11-15T14:09:40.918Z,21.38
2022-11-15T14:12:51.825Z,29.38
2022-11-15T14:15:27.108Z,24.35
2022-11-15T14:17:53.602Z,23.17
2022-11-15T14:20:27.014Z,25.20
2022-11-15T14:23:05.158Z,30.20
2022-11-15T14:25:36.110Z,27.52
2022-11-15T14:28:17.589Z,31.65
2022-11-15T14:30:48.107Z,30.80
2022-11-15T14:33:29.359Z,29.80
2022-11-15T14:35:58.123Z,24.60
2022-11-15T14:38:26.266Z,35.47
2022-11-15T14:40:52.890Z,25.85
2022-11-15T14:43:19.436Z,34.28
2022-11-15T14:45:45.885Z,29.90
2022-11-15T14:48:12.365Z,30.23
2022-11-15T14:50:39.670Z,34.20
2022-11-15T14:53:06.842Z,27.08
2022-11-15T14:55:37.175Z,27.95
2022-11-15T14:58:10.596Z,31.40
2022-11-15T15:00:39.339Z,31.63
2022-11-15T15:03:06.699Z,32.15
2022-11-15T15:05:36.044Z,29.38
2022-11-15T15:08:03.074Z,29.10
2022-11-15T15:10:40.215Z,32.30
2022-11-15T15:13:17.492Z,35.83
2022-11-15T15:15:44.052Z,33.67
2022-11-15T15:18:12.191Z,32.22
2022-11-15T15:20:40.898Z,32.40
2022-11-15T15:23:16.908Z,29.80
2022-11-15T15:25:44.553Z,33.55
2022-11-15T15:28:10.966Z,28.15
2022-11-15T15:30:37.407Z,33.35
2022-11-15T15:33:03.923Z,31.45
2022-11-15T15:35:33.290Z,30.95
2022-11-15T15:38:00.017Z,32.25
2022-11-15T15:40:29.078Z,27.88
2022-11-15T15:42:55.542Z,36.88
2022-11-15T15:45:22.081Z,34.47
2022-11-15T15:47:50.437Z,42.22
2022-11-15T15:50:28.442Z,31.23
2022-11-15T15:52:57.897Z,33.92
2022-11-15T15:55:25.244Z,32.88
2022-11-15T15:57:51.926Z,32.58
2022-11-15T16:00:20.660Z,31.45
2022-11-15T16:02:47.166Z,31.45
2022-11-15T16:05:13.958Z,43.85
2022-11-15T16:07:41.049Z,33.65
2022-11-15T16:10:27.253Z,41.40
2022-11-15T16:12:54.840Z,33.50
2022-11-15T16:15:22.822Z,32.28
2022-11-15T16:18:00.651Z,36.92
2022-11-15T16:20:36.788Z,34.38
2022-11-15T16:23:09.096Z,33.90
2022-11-15T16:25:49.429Z,38.25
2022-11-15T16:28:30.604Z,33.08
2022-11-15T16:31:10.656Z,35.55
2022-11-15T16:33:37.896Z,35.30
2022-11-15T16:36:06.176Z,36.10
2022-11-15T16:38:33.407Z,38.45
2022-11-15T16:41:00.045Z,37.50
2022-11-15T16:43:26.493Z,36.25
2022-11-15T16:45:52.910Z,36.25
2022-11-15T16:48:28.143Z,34.78
2022-11-15T16:50:56.369Z,33.33
2022-11-15T16:53:23.634Z,35.53
2022-11-15T16:55:50.040Z,39.67
2022-11-15T16:58:16.423Z,43.90
2022-11-15T17:00:42.933Z,35.72
2022-11-15T17:03:09.390Z,43.10
2022-11-15T17:05:35.921Z,39.00
2022-11-15T17:08:02.348Z,41.97
2022-11-15T17:10:28.838Z,38.35
2022-11-15T17:12:56.405Z,37.35
2022-11-15T17:15:24.494Z,43.97
2022-11-15T17:17:53.072Z,42.95
2022-11-15T17:20:21.700Z,43.28
2022-11-15T17:22:48.140Z,53.80
2022-11-15T17:25:15.090Z,47.28
2022-11-15T17:27:41.657Z,46.75
2022-11-15T17:30:09.968Z,52.85
2022-11-15T17:32:39.807Z,51.17
2022-11-15T17:35:14.914Z,57.20
2022-11-15T17:37:41.950Z,61.13
2022-11-15T17:40:08.993Z,52.47
2022-11-15T17:42:35.555Z,56.00
2022-11-15T17:45:06.726Z,62.63
2022-11-15T17:47:34.800Z,57.28
2022-11-15T17:50:01.328Z,64.03
2022-11-15T17:52:27.762Z,58.70
2022-11-15T17:54:54.141Z,67.70
2022-11-15T17:57:20.591Z,70.35
2022-11-15T17:59:48.711Z,67.00
2022-11-15T18:02:15.095Z,71.85
2022-11-15T18:04:41.600Z,73.43
2022-11-15T18:07:08.251Z,72.55
2022-11-15T18:09:34.804Z,74.75
2022-11-15T18:12:01.423Z,73.05
2022-11-15T18:14:27.911Z,80.60
2022-11-15T18:16:54.984Z,72.78
2022-11-15T18:19:22.609Z,76.30
2022-11-15T18:21:59.100Z,79.35
2022-11-15T18:24:34.740Z,75.80
2022-11-15T18:27:02.661Z,77.32
2022-11-15T18:29:29.116Z,76.25
2022-11-15T18:31:55.812Z,75.80
2022-11-15T18:34:24.084Z,78.97
2022-11-15T18:36:52.442Z,86.10
2022-11-15T18:39:19.448Z,78.70
2022-11-15T18:41:49.271Z,79.13
2022-11-15T18:44:16.360Z,71.80
2022-11-15T18:46:44.955Z,81.15
2022-11-15T18:49:13.266Z,77.97
2022-11-15T18:51:43.291Z,79.35
2022-11-15T18:54:11.386Z,77.85
2022-11-15T18:56:38.816Z,76.75
2022-11-15T18:59:06.161Z,72.50
2022-11-15T19:01:38.118Z,81.80
2022-11-15T19:04:11.676Z,80.03
2022-11-15T19:06:40.769Z,86.07
2022-11-15T19:09:08.364Z,75.97
2022-11-15T19:11:36.908Z,74.18
2022-11-15T19:14:05.978Z,76.93
2022-11-15T19:16:35.046Z,82.88
2022-11-15T19:19:06.806Z,79.47
2022-11-15T19:21:33.765Z,81.10
2022-11-15T19:24:01.374Z,88.15
2022-11-15T19:26:28.936Z,82.93
2022-11-15T19:29:00.307Z,83.57
2022-11-15T19:31:29.115Z,82.00
2022-11-15T19:33:56.183Z,82.55
2022-11-15T19:36:28.593Z,79.93
2022-11-15T19:38:56.064Z,83.95
2022-11-15T19:41:24.060Z,83.43
2022-11-15T19:43:51.567Z,82.70
2022-11-15T19:46:20.798Z,80.93
2022-11-15T19:48:48.145Z,85.18
2022-11-15T19:51:19.188Z,85.50
2022-11-15T19:53:45.917Z,84.78
2022-11-15T19:56:14.835Z,88.97
2022-11-15T19:58:42.075Z,89.47
2022-11-15T20:01:16.125Z,104.22
2022-11-15T20:03:42.533Z,107.38
2022-11-15T20:06:11.797Z,108.30
2022-11-15T20:08:38.604Z,105.05
2022-11-15T20:11:05.630Z,114.57
2022-11-15T20:13:32.243Z,111.90
2022-11-15T20:15:59.563Z,116.18
2022-11-15T20:18:27.416Z,121.70
2022-11-15T20:20:56.474Z,117.50
2022-11-15T20:23:22.957Z,111.72
2022-11-15T20:25:49.643Z,117.03
2022-11-15T20:28:21.681Z,115.68
2022-11-15T20:30:51.156Z,118.30
2022-11-15T20:33:17.826Z,116.28
2022-11-15T20:35:44.239Z,106.63
2022-11-15T20:38:11.721Z,121.40
2022-11-15T20:40:39.424Z,119.63
2022-11-15T20:43:06.705Z,114.90
2022-11-15T20:45:33.260Z,119.93
2022-11-15T20:47:59.718Z,111.78
2022-11-15T20:50:42.311Z,139.18
2022-11-15T20:53:11.605Z,120.43
2022-11-15T20:55:47.608Z,134.00
2022-11-15T20:58:15.680Z,122.20
2022-11-15T21:00:43.201Z,115.00
2022-11-15T21:03:09.734Z,118.38
2022-11-15T21:05:40.811Z,118.45
2022-11-15T21:08:08.156Z,125.10
2022-11-15T21:10:53.481Z,114.50
2022-11-15T21:13:20.347Z,136.57
2022-11-15T21:15:47.154Z,138.23
2022-11-15T21:18:14.036Z,121.70
2022-11-15T21:20:40.507Z,172.23
2022-11-15T21:23:07.088Z,123.70
2022-11-15T21:25:34.277Z,118.85
2022-11-15T21:28:00.723Z,168.55
2022-11-15T21:30:27.463Z,152.88
2022-11-15T21:32:53.876Z,129.38
2022-11-15T21:35:20.418Z,132.45
2022-11-15T21:37:50.556Z,139.40
2022-11-15T21:40:19.895Z,128.93
2022-11-15T21:42:46.678Z,155.02
2022-11-15T21:45:13.103Z,149.18
2022-11-15T21:47:44.673Z,137.18
2022-11-15T21:50:12.560Z,185.05
2022-11-15T21:52:39.132Z,143.85
2022-11-15T21:55:05.831Z,139.68
2022-11-15T21:57:32.442Z,144.63
2022-11-15T22:00:17.289Z,164.90
2022-11-15T22:02:43.688Z,151.27
2022-11-15T22:05:10.083Z,129.52
2022-11-15T22:07:36.636Z,134.45
2022-11-15T22:10:03.669Z,160.77
2022-11-15T22:12:30.144Z,131.95
2022-11-15T22:14:57.004Z,132.90
2022-11-15T22:17:24.575Z,143.32
2022-11-15T22:19:52.865Z,128.07
2022-11-15T22:22:19.686Z,128.95
2022-11-15T22:24:46.140Z,195.82
2022-11-15T22:27:12.615Z,142.27
2022-11-15T22:29:39.102Z,155.55
2022-11-15T22:32:05.564Z,147.15
2022-11-15T22:34:32.087Z,145.60
2022-11-15T22:37:19.701Z,140.65
2022-11-15T22:39:44.995Z,175.35
2022-11-15T22:42:11.562Z,157.32
2022-11-15T22:44:38.049Z,137.75
2022-11-15T22:47:04.603Z,135.85
2022-11-15T22:49:31.122Z,143.95
2022-11-15T22:51:57.551Z,167.35
2022-11-15T22:54:24.001Z,151.73
2022-11-15T22:56:50.475Z,160.68
2022-11-15T22:59:16.929Z,148.57
2022-11-15T23:01:43.423Z,121.07
2022-11-15T23:04:09.919Z,127.93
2022-11-15T23:06:36.477Z,172.80
2022-11-15T23:09:03.170Z,166.15
2022-11-15T23:11:48.205Z,146.07
2022-11-15T23:14:14.737Z,169.20
2022-11-15T23:16:41.542Z,136.15
2022-11-15T23:19:10.349Z,142.07
2022-11-15T23:21:58.195Z,183.77
2022-11-15T23:24:25.030Z,171.13
2022-11-15T23:26:54.781Z,147.00
2022-11-15T23:29:23.032Z,160.10
2022-11-15T23:32:07.939Z,143.68
2022-11-15T23:34:40.140Z,164.80
2022-11-15T23:37:08.329Z,144.38
2022-11-15T23:39:34.845Z,146.68
2022-11-15T23:42:06.064Z,181.40
2022-11-15T23:44:34.064Z,161.45
2022-11-15T23:47:00.564Z,166.57
2022-11-15T23:49:27.091Z,143.75
2022-11-15T23:51:53.904Z,161.40
2022-11-15T23:54:20.361Z,177.02
2022-11-15T23:56:46.880Z,155.57
2022-11-15T23:59:13.357Z,181.10
